createdAt,value
2023-04-17T00:01:28.022Z,13.93
2023-04-17T00:05:28.668Z,13.84
2023-04-17T00:09:28.820Z,13.59
2023-04-17T00:13:31.700Z,13.47
2023-04-17T00:17:31.917Z,13.25
2023-04-17T00:21:32.466Z,13.15
2023-04-17T00:25:32.803Z,13.08
2023-04-17T00:29:37.510Z,13.00
2023-04-17T00:33:38.220Z,13.13
2023-04-17T00:37:39.045Z,13.13
2023-04-17T00:41:39.329Z,12.88
2023-04-17T00:45:43.244Z,13.18
2023-04-17T00:49:44.081Z,13.36
2023-04-17T00:53:44.677Z,13.09
2023-04-17T00:57:48.326Z,13.25
2023-04-17T01:01:51.331Z,13.29
2023-04-17T01:05:54.949Z,13.28
2023-04-17T01:09:56.605Z,13.26
2023-04-17T01:13:57.192Z,13.34
2023-04-17T01:18:00.381Z,13.13
2023-04-17T01:22:00.897Z,12.87
2023-04-17T01:26:03.718Z,12.69
2023-04-17T01:30:04.904Z,12.58
2023-04-17T01:34:09.759Z,12.49
2023-04-17T01:38:10.003Z,12.36
2023-04-17T01:42:12.759Z,12.34
2023-04-17T01:46:13.433Z,12.30
2023-04-17T01:50:15.880Z,12.13
2023-04-17T01:54:17.061Z,12.39
2023-04-17T01:58:20.011Z,12.77
2023-04-17T02:02:21.184Z,12.94
2023-04-17T02:06:23.096Z,13.18
2023-04-17T02:10:23.383Z,13.24
2023-04-17T02:14:26.096Z,13.54
2023-04-17T02:18:26.671Z,13.63
2023-04-17T02:22:26.927Z,13.50
2023-04-17T02:26:27.058Z,13.59
2023-04-17T02:30:30.675Z,13.62
2023-04-17T02:34:32.214Z,13.63
2023-04-17T02:38:32.932Z,13.58
2023-04-17T02:42:33.249Z,13.58
2023-04-17T02:46:36.087Z,13.59
2023-04-17T02:50:36.898Z,13.54
2023-04-17T02:54:44.053Z,13.54
2023-04-17T02:58:46.064Z,13.58
2023-04-17T03:02:49.218Z,13.55
2023-04-17T03:06:49.526Z,13.58
2023-04-17T03:10:49.939Z,13.65
2023-04-17T03:14:50.115Z,13.78
2023-04-17T03:18:52.918Z,13.71
2023-04-17T03:22:53.112Z,13.78
2023-04-17T03:26:54.171Z,13.90
2023-04-17T03:30:58.368Z,14.03
2023-04-17T03:35:02.041Z,13.92
2023-04-17T03:39:02.496Z,13.90
2023-04-17T03:43:04.414Z,13.87
2023-04-17T03:47:05.749Z,14.01
2023-04-17T03:51:09.323Z,14.03
2023-04-17T03:55:12.382Z,13.95
2023-04-17T03:59:14.140Z,14.20
2023-04-17T04:03:16.738Z,13.97
2023-04-17T04:07:20.777Z,13.93
2023-04-17T04:11:23.103Z,14.17
2023-04-17T04:15:23.522Z,14.28
2023-04-17T04:19:28.238Z,14.11
2023-04-17T04:23:31.329Z,14.09
2023-04-17T04:27:33.072Z,14.18
2023-04-17T04:35:38.268Z,13.91
2023-04-17T04:39:43.217Z,13.84
2023-04-17T04:43:47.840Z,13.71
2023-04-17T04:47:48.323Z,13.64
2023-04-17T04:51:48.750Z,13.72
2023-04-17T04:55:52.049Z,13.59
2023-04-17T04:59:52.302Z,13.38
2023-04-17T05:04:00.806Z,13.63
2023-04-17T05:08:02.941Z,13.77
2023-04-17T05:12:10.515Z,13.68
2023-04-17T05:16:12.396Z,13.85
2023-04-17T05:20:15.303Z,13.95
2023-04-17T05:24:23.526Z,14.25
2023-04-17T05:28:27.455Z,14.31
2023-04-17T05:32:31.522Z,14.70
2023-04-17T05:36:36.979Z,14.86
2023-04-17T05:40:38.941Z,15.37
2023-04-17T05:44:42.164Z,15.25
2023-04-17T05:48:42.304Z,15.57
2023-04-17T05:52:42.608Z,15.95
2023-04-17T05:56:45.907Z,15.86
2023-04-17T06:00:48.893Z,16.25
2023-04-17T06:04:52.340Z,16.48
2023-04-17T06:08:54.585Z,16.51
2023-04-17T06:12:56.111Z,16.33
2023-04-17T06:16:58.972Z,16.16
2023-04-17T06:20:59.209Z,16.00
2023-04-17T06:25:02.068Z,16.52
2023-04-17T06:29:02.345Z,16.55
2023-04-17T06:33:08.421Z,16.83
2023-04-17T06:37:49.827Z,16.74
2023-04-17T06:42:29.392Z,17.02
2023-04-17T06:47:06.683Z,16.71
2023-04-17T06:56:14.589Z,16.89
2023-04-17T07:01:09.651Z,16.49
2023-04-17T07:05:11.135Z,17.11
2023-04-17T07:09:45.957Z,17.02
2023-04-17T07:13:46.222Z,17.24
2023-04-17T07:17:46.749Z,17.02
2023-04-17T07:21:47.047Z,17.12
2023-04-17T07:25:49.956Z,17.24
2023-04-17T07:29:54.825Z,17.61
2023-04-17T07:33:55.105Z,17.65
2023-04-17T07:47:12.936Z,17.24
2023-04-17T07:51:25.211Z,17.90
2023-04-17T07:55:41.368Z,17.54
2023-04-17T07:59:58.951Z,17.59
2023-04-17T08:04:04.756Z,17.67
2023-04-17T08:08:10.708Z,18.04
2023-04-17T08:17:07.859Z,18.64
2023-04-17T08:21:09.068Z,19.15
2023-04-17T08:25:13.102Z,19.01
2023-04-17T08:29:16.068Z,18.83
2023-04-17T08:33:19.999Z,18.89
2023-04-17T08:37:20.701Z,18.90
2023-04-17T08:41:27.280Z,18.79
2023-04-17T08:45:28.071Z,18.57
2023-04-17T08:49:32.903Z,18.83
2023-04-17T08:53:33.691Z,18.57
2023-04-17T08:57:36.730Z,18.11
2023-04-17T09:01:37.921Z,18.18
2023-04-17T09:05:46.606Z,18.33
2023-04-17T09:09:56.494Z,18.26
2023-04-17T09:13:57.779Z,18.12
2023-04-17T09:17:59.730Z,18.15
2023-04-17T09:22:21.940Z,18.61
2023-04-17T09:26:25.185Z,18.67
2023-04-17T09:30:28.344Z,18.69
2023-04-17T09:34:32.155Z,18.48
2023-04-17T09:38:45.136Z,18.46
2023-04-17T09:43:04.198Z,19.06
2023-04-17T09:47:08.462Z,19.29
2023-04-17T09:51:09.791Z,19.05
2023-04-17T09:55:14.892Z,19.32
2023-04-17T09:59:16.749Z,19.53
2023-04-17T10:03:19.599Z,19.26
2023-04-17T10:07:22.438Z,19.49
2023-04-17T10:11:27.655Z,19.61
2023-04-17T10:15:29.988Z,20.33
2023-04-17T10:19:36.882Z,20.37
2023-04-17T10:23:40.473Z,20.52
2023-04-17T10:27:53.871Z,21.09
2023-04-17T10:32:29.149Z,21.61
2023-04-17T10:36:55.348Z,22.97
2023-04-17T10:40:56.523Z,22.90
2023-04-17T10:45:05.764Z,23.62
2023-04-17T10:49:10.267Z,24.29
2023-04-17T10:53:12.528Z,24.36
2023-04-17T10:57:15.201Z,24.56
2023-04-17T11:01:21.884Z,25.45
2023-04-17T11:05:24.487Z,25.84
2023-04-17T11:09:29.994Z,25.82
2023-04-17T11:13:37.081Z,25.50
2023-04-17T11:17:43.290Z,23.90
2023-04-17T11:21:45.805Z,23.79
2023-04-17T11:25:47.587Z,24.60
2023-04-17T11:29:49.111Z,26.03
2023-04-17T11:33:53.809Z,25.60
2023-04-17T11:38:23.042Z,25.66
2023-04-17T11:42:31.949Z,24.75
2023-04-17T11:46:34.382Z,24.11
2023-04-17T11:50:39.378Z,23.31
2023-04-17T11:54:41.973Z,23.12
2023-04-17T11:58:57.214Z,23.34
2023-04-17T12:02:59.110Z,22.66
2023-04-17T12:07:02.879Z,21.45
2023-04-17T12:11:03.675Z,21.02
2023-04-17T12:15:08.614Z,21.62
2023-04-17T12:19:10.907Z,22.62
2023-04-17T12:23:16.481Z,22.60
2023-04-17T12:27:17.574Z,23.27
2023-04-17T12:31:18.065Z,23.41
2023-04-17T12:35:19.645Z,22.95
2023-04-17T12:39:23.791Z,22.26
2023-04-17T12:43:26.504Z,21.86
2023-04-17T12:47:27.662Z,21.78
2023-04-17T12:51:29.900Z,21.38
2023-04-17T12:55:33.537Z,21.42
2023-04-17T12:59:36.380Z,22.11
2023-04-17T13:03:38.323Z,23.21
2023-04-17T13:07:41.232Z,23.72
2023-04-17T13:11:44.490Z,24.63
2023-04-17T13:15:47.748Z,23.96
2023-04-17T13:19:48.511Z,23.73
2023-04-17T13:23:48.995Z,23.69
2023-04-17T13:27:52.215Z,23.31
2023-04-17T13:31:52.790Z,22.96
2023-04-17T13:35:54.685Z,23.01
2023-04-17T13:39:55.300Z,22.67
2023-04-17T13:44:00.196Z,22.25
2023-04-17T13:48:00.932Z,21.55
2023-04-17T13:52:04.073Z,21.30
2023-04-17T13:56:07.926Z,21.60
2023-04-17T14:00:14.411Z,21.27
2023-04-17T14:04:18.048Z,20.76
2023-04-17T14:08:21.209Z,20.09
2023-04-17T14:12:22.372Z,19.88
2023-04-17T14:16:25.870Z,19.63
2023-04-17T14:20:28.513Z,18.98
2023-04-17T14:24:29.578Z,18.43
2023-04-17T14:28:38.089Z,18.07
2023-04-17T14:32:42.065Z,17.77
2023-04-17T14:36:43.657Z,17.89
2023-04-17T14:40:46.132Z,18.01
2023-04-17T14:44:48.188Z,18.09
2023-04-17T14:48:55.572Z,17.78
2023-04-17T14:52:57.763Z,17.97
2023-04-17T14:56:58.537Z,18.39
2023-04-17T15:01:05.066Z,18.34
2023-04-17T15:05:23.037Z,18.43
2023-04-17T15:09:26.508Z,18.39
2023-04-17T15:13:29.953Z,18.57
2023-04-17T15:17:36.445Z,18.43
2023-04-17T15:21:45.890Z,17.97
2023-04-17T15:25:46.369Z,17.45
2023-04-17T15:29:49.127Z,17.30
2023-04-17T15:33:49.724Z,17.16
2023-04-17T15:37:53.036Z,17.01
2023-04-17T15:41:54.082Z,16.63
2023-04-17T15:45:57.872Z,16.79
2023-04-17T15:49:58.548Z,16.50
2023-04-17T15:54:01.657Z,16.37
2023-04-17T15:58:02.565Z,16.60
2023-04-17T16:02:03.146Z,16.71
2023-04-17T16:06:04.054Z,16.93
2023-04-17T16:10:13.888Z,16.94
2023-04-17T16:14:14.666Z,16.90
2023-04-17T16:18:16.122Z,16.75
2023-04-17T16:22:17.967Z,17.16
2023-04-17T16:26:22.152Z,17.58
2023-04-17T16:30:23.125Z,17.69
2023-04-17T16:34:24.158Z,18.41
2023-04-17T16:38:25.039Z,18.24
2023-04-17T16:42:28.295Z,18.65
2023-04-17T16:46:40.347Z,18.98
2023-04-17T16:50:50.737Z,18.78
2023-04-17T16:54:52.785Z,18.32
2023-04-17T16:58:56.179Z,17.59
2023-04-17T17:02:57.127Z,17.25
2023-04-17T17:06:57.967Z,16.78
2023-04-17T17:11:00.539Z,16.52
2023-04-17T17:15:04.065Z,16.35
2023-04-17T17:19:06.174Z,16.18
2023-04-17T17:23:10.701Z,16.41
2023-04-17T17:27:13.317Z,16.23
2023-04-17T17:31:16.649Z,15.84
2023-04-17T17:35:17.290Z,15.71
2023-04-17T17:39:18.841Z,15.48
2023-04-17T17:43:19.468Z,15.72
2023-04-17T17:47:27.536Z,15.76
2023-04-17T17:51:28.446Z,15.82
2023-04-17T17:55:38.045Z,15.61
2023-04-17T17:59:38.823Z,15.37
2023-04-17T18:03:42.600Z,15.23
2023-04-17T18:07:43.460Z,15.09
2023-04-17T18:11:46.618Z,15.15
2023-04-17T18:15:48.491Z,15.01
2023-04-17T18:19:52.135Z,15.19
2023-04-17T18:23:53.372Z,15.30
2023-04-17T18:27:54.471Z,15.43
2023-04-17T18:31:55.873Z,15.35
2023-04-17T18:35:59.465Z,15.32
2023-04-17T18:40:00.341Z,15.26
2023-04-17T18:44:02.324Z,15.23
2023-04-17T18:48:05.905Z,15.34
2023-04-17T18:52:11.428Z,15.33
2023-04-17T18:56:16.700Z,15.23
2023-04-17T19:00:18.124Z,15.30
2023-04-17T19:04:18.701Z,15.23
2023-04-17T19:08:24.718Z,15.01
2023-04-17T19:12:25.603Z,15.10
2023-04-17T19:16:27.035Z,15.11
2023-04-17T19:20:29.059Z,15.24
2023-04-17T19:24:34.778Z,15.19
2023-04-17T19:28:35.387Z,15.14
2023-04-17T19:32:36.018Z,15.17
2023-04-17T19:36:36.657Z,15.21
2023-04-17T19:40:40.533Z,15.07
2023-04-17T19:44:42.135Z,14.99
2023-04-17T19:48:45.653Z,15.16
2023-04-17T19:52:46.781Z,15.24
2023-04-17T19:56:50.235Z,15.06
2023-04-17T20:00:51.991Z,14.96
2023-04-17T20:04:53.689Z,14.75
2023-04-17T20:08:58.851Z,14.87
2023-04-17T20:13:02.225Z,14.87
2023-04-17T20:17:03.335Z,14.89
2023-04-17T20:21:07.169Z,14.83
2023-04-17T20:25:10.036Z,14.59
2023-04-17T20:29:14.987Z,14.64
2023-04-17T20:33:15.826Z,14.64
2023-04-17T20:37:16.743Z,14.67
2023-04-17T20:41:18.326Z,14.66
2023-04-17T20:45:28.362Z,14.64
2023-04-17T20:49:29.170Z,14.87
2023-04-17T20:53:30.555Z,14.72
2023-04-17T20:57:33.085Z,14.70
2023-04-17T21:01:36.787Z,14.73
2023-04-17T21:05:38.111Z,14.57
2023-04-17T21:09:45.901Z,13.80
2023-04-17T21:13:48.841Z,13.93
2023-04-17T21:17:52.878Z,13.98
2023-04-17T21:21:53.885Z,13.91
2023-04-17T21:25:56.402Z,14.17
2023-04-17T21:29:59.911Z,13.59
2023-04-17T21:34:04.358Z,13.94
2023-04-17T21:38:06.709Z,13.88
2023-04-17T21:42:09.959Z,13.95
2023-04-17T21:46:13.598Z,14.01
2023-04-17T21:50:17.110Z,14.27
2023-04-17T21:54:17.817Z,14.17
2023-04-17T21:58:18.418Z,14.05
2023-04-17T22:02:19.213Z,13.82
2023-04-17T22:06:22.558Z,14.22
2023-04-17T22:10:23.383Z,14.29
2023-04-17T22:14:24.548Z,14.28
2023-04-17T22:18:29.904Z,14.32
2023-04-17T22:22:37.552Z,14.40
2023-04-17T22:26:38.329Z,14.41
2023-04-17T22:30:38.862Z,14.56
2023-04-17T22:34:41.907Z,13.92
2023-04-17T22:38:47.277Z,13.99
2023-04-17T22:42:48.253Z,13.97
2023-04-17T22:46:51.155Z,13.76
2023-04-17T22:50:51.618Z,14.07
2023-04-17T22:54:54.746Z,13.92
2023-04-17T22:58:55.060Z,14.06
2023-04-17T23:02:55.693Z,14.06
2023-04-17T23:06:56.582Z,14.24
2023-04-17T23:11:05.081Z,14.27
2023-04-17T23:15:06.461Z,14.45
2023-04-17T23:19:06.823Z,14.38
2023-04-17T23:23:07.483Z,13.79
2023-04-17T23:27:11.133Z,14.02
2023-04-17T23:31:11.875Z,14.12
2023-04-17T23:35:13.076Z,14.27
2023-04-17T23:39:13.797Z,14.24
2023-04-17T23:43:16.956Z,14.19
2023-04-17T23:47:17.326Z,14.23
2023-04-17T23:51:17.883Z,14.19
2023-04-17T23:55:19.380Z,14.20
2023-04-17T23:59:23.085Z,14.16
